Time;durP1;ratioP1;P1;durP2;ratioP2;P2;SDS_P1;SDS_P2;PMS_P1;PMS_P2;Temp;Humidity;BMP_temperature;BMP_pressure;BME280_temperature;BME280_humidity;BME280_pressure;Samples;Min_cycle;Max_cycle;Signal;HPM_P1;HPM_P2
2023/07/24 00:02:17;;;;;;;;;20.67;20.67;;;;;;;;117826;1179;23519;-72
2023/07/24 00:04:45;;;;;;;;;18.00;18.00;;;;;;;;117856;1186;23843;-67
2023/07/24 00:07:13;;;;;;;;;21.00;21.00;;;;;;;;117802;1180;23593;-69
2023/07/24 00:09:41;;;;;;;;;21.67;21.67;;;;;;;;117785;1179;23359;-70
2023/07/24 00:12:09;;;;;;;;;18.00;18.00;;;;;;;;117755;1180;23656;-66
2023/07/24 00:14:37;;;;;;;;;20.00;19.33;;;;;;;;117844;1184;23188;-65
2023/07/24 00:17:05;;;;;;;;;22.33;22.00;;;;;;;;117832;1183;23239;-64
2023/07/24 00:19:32;;;;;;;;;24.00;24.00;;;;;;;;117822;1180;24351;-66
2023/07/24 00:22:00;;;;;;;;;24.00;21.33;;;;;;;;117843;1180;23573;-66
2023/07/24 00:24:29;;;;;;;;;24.67;24.67;;;;;;;;117847;1180;23322;-66
2023/07/24 00:26:57;;;;;;;;;22.00;21.00;;;;;;;;117826;1192;23531;-68
2023/07/24 00:29:25;;;;;;;;;18.00;17.33;;;;;;;;117849;1181;24145;-67
2023/07/24 00:31:53;;;;;;;;;18.00;18.00;;;;;;;;117853;1192;24979;-66
2023/07/24 00:34:21;;;;;;;;;23.00;21.00;;;;;;;;117851;1180;23894;-67
2023/07/24 00:36:49;;;;;;;;;23.00;23.00;;;;;;;;118160;1192;23349;-67
2023/07/24 00:39:17;;;;;;;;;23.00;22.00;;;;;;;;117867;1180;23652;-67
2023/07/24 00:41:45;;;;;;;;;22.00;22.00;;;;;;;;117828;1181;23515;-66
2023/07/24 00:44:12;;;;;;;;;24.50;23.50;;;;;;;;117823;1192;23255;-66
2023/07/24 00:46:40;;;;;;;;;23.00;19.50;;;;;;;;117840;1180;23684;-68
2023/07/24 00:49:08;;;;;;;;;26.33;23.67;;;;;;;;117845;1192;23347;-64
2023/07/24 00:51:36;;;;;;;;;21.67;21.67;;;;;;;;117834;1180;23298;-66
2023/07/24 00:54:05;;;;;;;;;23.67;23.67;;;;;;;;117905;1180;24186;-66
2023/07/24 00:56:34;;;;;;;;;19.00;19.00;;;;;;;;117839;1179;24203;-67
2023/07/24 00:59:02;;;;;;;;;26.00;26.00;;;;;;;;117822;1181;23306;-66
2023/07/24 01:01:30;;;;;;;;;20.00;20.00;;;;;;;;117795;1180;24365;-66
2023/07/24 01:03:58;;;;;;;;;20.50;20.50;;;;;;;;117800;1192;23353;-71
2023/07/24 01:06:26;;;;;;;;;23.50;23.50;;;;;;;;117867;1179;23377;-67
2023/07/24 01:08:55;;;;;;;;;22.00;21.33;;;;;;;;117812;1180;23503;-67
2023/07/24 01:11:32;;;;;;;;;20.50;20.00;;;;;;;;117859;1180;23575;-68
2023/07/24 01:14:11;;;;;;;;;25.00;25.00;;;;;;;;117838;1180;23653;-69
2023/07/24 01:16:41;;;;;;;;;23.00;21.50;;;;;;;;117830;1180;23557;-68
2023/07/24 01:19:17;;;;;;;;;21.67;21.67;;;;;;;;117842;1179;23657;-68
2023/07/24 01:21:52;;;;;;;;;20.67;19.67;;;;;;;;117855;1179;24572;-69
2023/07/24 01:24:25;;;;;;;;;23.67;22.33;;;;;;;;117842;1179;23601;-71
2023/07/24 01:26:53;;;;;;;;;20.33;20.33;;;;;;;;118134;1180;23858;-69
2023/07/24 01:29:21;;;;;;;;;20.67;20.67;;;;;;;;117851;1180;23760;-72
2023/07/24 01:31:49;;;;;;;;;19.67;19.00;;;;;;;;117857;1192;23909;-74
2023/07/24 01:34:17;;;;;;;;;22.33;22.33;;;;;;;;117853;1179;23177;-71
2023/07/24 01:36:45;;;;;;;;;20.33;20.33;;;;;;;;117868;1180;24282;-72
2023/07/24 01:39:14;;;;;;;;;21.00;19.67;;;;;;;;117785;1179;23759;-73
2023/07/24 01:41:42;;;;;;;;;19.00;19.00;;;;;;;;117892;1180;23422;-73
2023/07/24 01:44:10;;;;;;;;;19.33;19.33;;;;;;;;117890;1179;23461;-74
2023/07/24 01:46:38;;;;;;;;;21.00;21.00;;;;;;;;117864;1183;23373;-71
2023/07/24 01:49:06;;;;;;;;;20.00;20.00;;;;;;;;117883;1180;23573;-70
2023/07/24 01:51:34;;;;;;;;;20.50;20.50;;;;;;;;117841;1180;23560;-71
2023/07/24 01:54:02;;;;;;;;;23.33;21.33;;;;;;;;117844;1180;23503;-71
2023/07/24 01:56:30;;;;;;;;;21.67;21.00;;;;;;;;117857;1180;23369;-74
2023/07/24 01:58:59;;;;;;;;;21.67;21.67;;;;;;;;117854;1180;23539;-72
2023/07/24 02:01:27;;;;;;;;;19.33;19.33;;;;;;;;117813;1180;23842;-72
2023/07/24 02:03:55;;;;;;;;;20.33;19.67;;;;;;;;117823;1180;23543;-71
2023/07/24 02:06:22;;;;;;;;;17.00;17.00;;;;;;;;117839;1180;23618;-71
2023/07/24 02:08:51;;;;;;;;;19.00;18.33;;;;;;;;117928;1179;23337;-71
2023/07/24 02:11:19;;;;;;;;;20.33;20.33;;;;;;;;117846;1184;23876;-73
2023/07/24 02:13:47;;;;;;;;;19.33;19.00;;;;;;;;117842;1186;23502;-74
2023/07/24 02:16:14;;;;;;;;;19.33;19.33;;;;;;;;117851;1179;24716;-69
2023/07/24 02:18:43;;;;;;;;;23.50;21.00;;;;;;;;117844;1179;23627;-73
2023/07/24 02:21:10;;;;;;;;;22.00;20.00;;;;;;;;117863;1180;23581;-69
2023/07/24 02:23:38;;;;;;;;;21.00;20.50;;;;;;;;117847;1180;23489;-68
2023/07/24 02:26:06;;;;;;;;;19.33;19.33;;;;;;;;117844;1180;23358;-70
2023/07/24 02:28:34;;;;;;;;;21.00;19.33;;;;;;;;117830;1180;23567;-70
2023/07/24 02:31:02;;;;;;;;;16.33;16.33;;;;;;;;117810;1180;24277;-69
2023/07/24 02:33:30;;;;;;;;;20.33;19.00;;;;;;;;117803;1179;23564;-69
2023/07/24 02:35:58;;;;;;;;;23.00;23.00;;;;;;;;117856;1180;23430;-68
2023/07/24 02:38:26;;;;;;;;;23.67;23.67;;;;;;;;117791;1180;23399;-68
2023/07/24 02:40:54;;;;;;;;;20.00;18.00;;;;;;;;117804;1187;23525;-66
2023/07/24 02:43:22;;;;;;;;;19.00;18.33;;;;;;;;117843;1179;23485;-67
2023/07/24 02:45:50;;;;;;;;;25.00;25.00;;;;;;;;117862;1180;24011;-69
2023/07/24 02:48:18;;;;;;;;;16.50;16.50;;;;;;;;117813;1180;23468;-69
2023/07/24 02:50:47;;;;;;;;;25.00;22.00;;;;;;;;117838;1180;23651;-69
2023/07/24 02:53:15;;;;;;;;;18.33;17.67;;;;;;;;117886;1192;23432;-70
2023/07/24 02:55:43;;;;;;;;;21.33;19.00;;;;;;;;117850;1187;24331;-71
2023/07/24 02:58:12;;;;;;;;;22.67;22.67;;;;;;;;117847;1180;23295;-69
2023/07/24 03:00:40;;;;;;;;;20.50;19.00;;;;;;;;117863;1181;23357;-69
2023/07/24 03:03:08;;;;;;;;;20.33;20.33;;;;;;;;117831;1192;23378;-70
2023/07/24 03:05:36;;;;;;;;;20.00;20.00;;;;;;;;117841;1180;23409;-69
2023/07/24 03:08:04;;;;;;;;;23.00;22.00;;;;;;;;117889;1179;23550;-69
2023/07/24 03:10:32;;;;;;;;;17.50;17.50;;;;;;;;117839;1179;23293;-68
2023/07/24 03:13:00;;;;;;;;;19.67;19.67;;;;;;;;117887;1190;23709;-67
2023/07/24 03:15:28;;;;;;;;;20.00;20.00;;;;;;;;117839;1180;23547;-67
2023/07/24 03:17:56;;;;;;;;;18.67;17.33;;;;;;;;117821;1180;23387;-68
2023/07/24 03:20:24;;;;;;;;;17.00;17.00;;;;;;;;117824;1180;23326;-67
2023/07/24 03:22:52;;;;;;;;;17.00;17.00;;;;;;;;117829;1180;23464;-67
2023/07/24 03:25:19;;;;;;;;;22.67;22.00;;;;;;;;117828;1187;23536;-70
2023/07/24 03:27:47;;;;;;;;;18.50;18.50;;;;;;;;117847;1180;23750;-68
2023/07/24 03:30:15;;;;;;;;;19.33;19.33;;;;;;;;117785;1180;23337;-69
2023/07/24 03:32:43;;;;;;;;;21.00;19.00;;;;;;;;117829;1181;23886;-71
2023/07/24 03:35:11;;;;;;;;;19.33;18.33;;;;;;;;117853;1180;23314;-69
2023/07/24 03:37:39;;;;;;;;;22.33;21.00;;;;;;;;117791;1180;23338;-67
2023/07/24 03:40:07;;;;;;;;;19.00;19.00;;;;;;;;117849;1179;23252;-76
2023/07/24 03:42:35;;;;;;;;;21.00;21.00;;;;;;;;117847;1179;23328;-73
2023/07/24 03:45:03;;;;;;;;;18.50;18.50;;;;;;;;117857;1180;23538;-73
2023/07/24 03:47:31;;;;;;;;;23.00;23.00;;;;;;;;117822;1180;23341;-74
2023/07/24 03:49:59;;;;;;;;;17.50;17.00;;;;;;;;117799;1180;24175;-73
2023/07/24 03:52:27;;;;;;;;;15.67;15.67;;;;;;;;117773;1192;24414;-68
2023/07/24 03:54:55;;;;;;;;;19.33;19.33;;;;;;;;117809;1192;23238;-66
2023/07/24 03:57:23;;;;;;;;;20.00;19.67;;;;;;;;117814;1179;23364;-65
2023/07/24 03:59:51;;;;;;;;;19.67;19.67;;;;;;;;117834;1180;23659;-67
2023/07/24 04:02:19;;;;;;;;;22.00;22.00;;;;;;;;117861;1180;23934;-66
2023/07/24 04:04:47;;;;;;;;;20.33;20.00;;;;;;;;117883;1180;23394;-63
2023/07/24 04:07:15;;;;;;;;;21.00;21.00;;;;;;;;117885;1180;23376;-65
2023/07/24 04:09:43;;;;;;;;;21.67;20.00;;;;;;;;117838;1180;23678;-70
2023/07/24 04:12:11;;;;;;;;;19.00;19.00;;;;;;;;117826;1180;24389;-73
2023/07/24 04:25:19;;;;;;;;;22.33;22.33;;;;;;;;116270;1200;23455;-65
2023/07/24 04:27:47;;;;;;;;;23.00;21.67;;;;;;;;117371;1182;23506;-64
2023/07/24 04:30:15;;;;;;;;;25.67;25.67;;;;;;;;117398;1183;23481;-65
2023/07/24 04:32:43;;;;;;;;;28.33;26.33;;;;;;;;117347;1187;23297;-65
2023/07/24 04:35:10;;;;;;;;;20.50;20.50;;;;;;;;117454;1182;23469;-65
2023/07/24 04:37:38;;;;;;;;;19.67;19.67;;;;;;;;117449;1195;23380;-65
2023/07/24 04:40:07;;;;;;;;;19.00;19.00;;;;;;;;117345;1183;23569;-76
2023/07/24 04:42:35;;;;;;;;;22.33;22.33;;;;;;;;117369;1183;24181;-73
2023/07/24 04:45:03;;;;;;;;;20.67;20.67;;;;;;;;117434;1183;23584;-72
2023/07/24 04:47:31;;;;;;;;;21.00;21.00;;;;;;;;117478;1182;23306;-70
2023/07/24 04:49:59;;;;;;;;;20.00;20.00;;;;;;;;117354;1184;23634;-72
2023/07/24 04:52:27;;;;;;;;;20.00;20.00;;;;;;;;117314;1184;24267;-72
2023/07/24 04:54:54;;;;;;;;;26.00;24.00;;;;;;;;117462;1183;23798;-71
2023/07/24 04:57:22;;;;;;;;;25.00;25.00;;;;;;;;117373;1183;23693;-72
2023/07/24 04:59:50;;;;;;;;;25.67;24.33;;;;;;;;117351;1183;24090;-70
2023/07/24 05:02:18;;;;;;;;;24.00;23.00;;;;;;;;117444;1184;23601;-72
2023/07/24 05:04:46;;;;;;;;;25.00;23.50;;;;;;;;117331;1183;23610;-70
2023/07/24 05:07:14;;;;;;;;;23.00;23.00;;;;;;;;117405;1183;23313;-72
2023/07/24 05:09:42;;;;;;;;;18.00;18.00;;;;;;;;117389;1184;23271;-73
2023/07/24 05:12:10;;;;;;;;;25.33;23.33;;;;;;;;117315;1183;23455;-72
2023/07/24 05:14:37;;;;;;;;;23.00;22.00;;;;;;;;117752;1179;23365;-69
2023/07/24 05:17:05;;;;;;;;;24.67;22.67;;;;;;;;117839;1180;23370;-72
2023/07/24 05:19:33;;;;;;;;;25.50;23.50;;;;;;;;117637;1179;23449;-72
2023/07/24 05:22:01;;;;;;;;;23.67;23.67;;;;;;;;117797;1179;23470;-73
2023/07/24 05:24:29;;;;;;;;;28.33;27.33;;;;;;;;117735;1180;23319;-71
2023/07/24 05:26:57;;;;;;;;;25.00;24.67;;;;;;;;117657;1179;23307;-71
2023/07/24 05:29:25;;;;;;;;;24.00;24.00;;;;;;;;117722;1180;23408;-70
2023/07/24 05:31:52;;;;;;;;;25.67;24.33;;;;;;;;117804;1180;23605;-72
2023/07/24 05:34:21;;;;;;;;;24.00;24.00;;;;;;;;117757;1179;23587;-71
2023/07/24 05:36:48;;;;;;;;;25.00;24.50;;;;;;;;117750;1180;23586;-70
2023/07/24 05:39:16;;;;;;;;;25.00;23.50;;;;;;;;117769;1180;23537;-72
2023/07/24 05:41:44;;;;;;;;;29.00;28.67;;;;;;;;117746;1179;23305;-73
2023/07/24 05:44:12;;;;;;;;;27.00;26.67;;;;;;;;117772;1179;23391;-72
2023/07/24 05:46:39;;;;;;;;;26.00;26.00;;;;;;;;117801;1179;23281;-69
2023/07/24 05:49:07;;;;;;;;;27.33;27.33;;;;;;;;117752;1179;23503;-71
2023/07/24 05:51:35;;;;;;;;;25.33;24.33;;;;;;;;117772;1192;23487;-72
2023/07/24 05:54:03;;;;;;;;;29.00;27.00;;;;;;;;117782;1179;23195;-72
2023/07/24 05:56:31;;;;;;;;;23.67;23.00;;;;;;;;117759;1180;23878;-71
2023/07/24 05:58:59;;;;;;;;;25.00;24.50;;;;;;;;117807;1179;23706;-71
2023/07/24 06:01:27;;;;;;;;;20.67;20.67;;;;;;;;117728;1180;23782;-71
2023/07/24 06:03:54;;;;;;;;;25.33;24.33;;;;;;;;117827;1179;23347;-71
2023/07/24 06:06:22;;;;;;;;;29.33;24.00;;;;;;;;117730;1179;23917;-71
2023/07/24 06:08:50;;;;;;;;;28.33;27.00;;;;;;;;117773;1180;24342;-73
2023/07/24 06:11:18;;;;;;;;;28.00;25.33;;;;;;;;117865;1179;23174;-72
2023/07/24 06:13:46;;;;;;;;;27.67;27.67;;;;;;;;117854;1180;24367;-72
2023/07/24 06:16:14;;;;;;;;;27.33;27.33;;;;;;;;117788;1179;23614;-73
2023/07/24 06:18:42;;;;;;;;;24.33;24.33;;;;;;;;117775;1179;23511;-71
2023/07/24 06:21:10;;;;;;;;;31.33;26.33;;;;;;;;117792;1179;23642;-70
2023/07/24 06:23:38;;;;;;;;;24.33;24.33;;;;;;;;117743;1179;23241;-71
2023/07/24 06:26:06;;;;;;;;;30.67;28.33;;;;;;;;117780;1179;23398;-73
2023/07/24 06:28:34;;;;;;;;;29.00;28.00;;;;;;;;117789;1179;23584;-71
2023/07/24 06:31:02;;;;;;;;;29.33;27.00;;;;;;;;117817;1179;23546;-70
2023/07/24 06:33:30;;;;;;;;;31.00;29.33;;;;;;;;117848;1179;23561;-73
2023/07/24 06:35:58;;;;;;;;;32.33;28.67;;;;;;;;117862;1184;23451;-71
2023/07/24 06:38:26;;;;;;;;;29.33;29.00;;;;;;;;117805;1180;23946;-73
2023/07/24 06:40:54;;;;;;;;;26.00;24.33;;;;;;;;117800;1192;23239;-72
2023/07/24 06:43:22;;;;;;;;;23.00;23.00;;;;;;;;117797;1179;23498;-72
2023/07/24 06:45:50;;;;;;;;;31.33;26.33;;;;;;;;117833;1180;23443;-73
2023/07/24 06:48:18;;;;;;;;;28.00;28.00;;;;;;;;117831;1178;23611;-77
2023/07/24 06:50:46;;;;;;;;;28.00;28.00;;;;;;;;117785;1191;23586;-75
2023/07/24 06:53:14;;;;;;;;;31.67;29.00;;;;;;;;117943;1177;23413;-74
2023/07/24 06:55:42;;;;;;;;;31.00;29.67;;;;;;;;117935;1177;24426;-75
2023/07/24 06:58:10;;;;;;;;;30.00;27.00;;;;;;;;117945;1177;24659;-73
2023/07/24 07:00:37;;;;;;;;;31.33;30.67;;;;;;;;118018;1190;23474;-75
2023/07/24 07:03:05;;;;;;;;;29.33;27.67;;;;;;;;117991;1189;23582;-72
2023/07/24 07:05:34;;;;;;;;;29.00;29.00;;;;;;;;117982;1190;23256;-73
2023/07/24 07:08:01;;;;;;;;;26.67;26.67;;;;;;;;117997;1176;23362;-72
2023/07/24 07:10:33;;;;;;;;;31.00;28.00;;;;;;;;117953;1186;23699;-71
2023/07/24 07:13:01;;;;;;;;;32.33;31.00;;;;;;;;117985;1176;23494;-72
2023/07/24 07:15:28;;;;;;;;;28.00;26.33;;;;;;;;117923;1176;23595;-68
2023/07/24 07:17:57;;;;;;;;;31.00;28.67;;;;;;;;118060;1188;24517;-72
2023/07/24 07:20:24;;;;;;;;;26.33;25.33;;;;;;;;117970;1177;23582;-71
2023/07/24 07:22:53;;;;;;;;;33.00;30.00;;;;;;;;117928;1177;23616;-69
2023/07/24 07:25:20;;;;;;;;;33.33;30.67;;;;;;;;117983;1176;23339;-69
2023/07/24 07:27:48;;;;;;;;;31.33;30.00;;;;;;;;118035;1176;23401;-70
2023/07/24 07:30:16;;;;;;;;;27.33;27.33;;;;;;;;117856;1190;23522;-73
2023/07/24 07:32:44;;;;;;;;;26.00;26.00;;;;;;;;117971;1177;23429;-70
2023/07/24 07:35:12;;;;;;;;;32.00;31.00;;;;;;;;117995;1176;23207;-71
2023/07/24 07:37:39;;;;;;;;;75.00;67.67;;;;;;;;118002;1176;23896;-69
2023/07/24 07:40:08;;;;;;;;;33.67;31.00;;;;;;;;117993;1177;23518;-69
2023/07/24 07:42:35;;;;;;;;;40.33;30.33;;;;;;;;117859;1177;23549;-68
2023/07/24 07:45:06;;;;;;;;;26.00;25.67;;;;;;;;117916;1177;23537;-68
2023/07/24 07:47:34;;;;;;;;;29.67;28.00;;;;;;;;118048;1176;23560;-70
2023/07/24 07:50:02;;;;;;;;;30.67;29.33;;;;;;;;117999;1177;23646;-68
2023/07/24 07:52:30;;;;;;;;;28.50;27.00;;;;;;;;117904;1190;23298;-69
2023/07/24 07:54:58;;;;;;;;;25.67;25.67;;;;;;;;118127;1180;23420;-69
2023/07/24 07:57:27;;;;;;;;;24.00;24.00;;;;;;;;118100;1177;23261;-70
2023/07/24 07:59:55;;;;;;;;;25.33;25.33;;;;;;;;117949;1178;23976;-68
2023/07/24 08:02:23;;;;;;;;;26.00;26.00;;;;;;;;117946;1177;23341;-68
2023/07/24 08:04:51;;;;;;;;;26.00;25.00;;;;;;;;117949;1177;24171;-65
2023/07/24 08:07:18;;;;;;;;;22.00;22.00;;;;;;;;118010;1176;23428;-68
2023/07/24 08:09:46;;;;;;;;;23.67;23.67;;;;;;;;117885;1177;23552;-68
2023/07/24 08:12:14;;;;;;;;;24.00;24.00;;;;;;;;117966;1177;23291;-68
2023/07/24 08:14:42;;;;;;;;;21.00;21.00;;;;;;;;117950;1176;23392;-67
2023/07/24 08:17:10;;;;;;;;;23.33;21.33;;;;;;;;117984;1177;23357;-70
2023/07/24 08:19:38;;;;;;;;;26.67;23.00;;;;;;;;117973;1176;23395;-71
2023/07/24 08:22:06;;;;;;;;;27.67;25.00;;;;;;;;117992;1176;23572;-68
2023/07/24 08:24:35;;;;;;;;;27.33;27.33;;;;;;;;117985;1177;24527;-66
2023/07/24 08:27:03;;;;;;;;;22.67;21.67;;;;;;;;118189;1177;24648;-68
2023/07/24 08:29:31;;;;;;;;;25.00;24.00;;;;;;;;117942;1177;23619;-66
2023/07/24 08:31:59;;;;;;;;;23.33;22.67;;;;;;;;117960;1177;23739;-73
2023/07/24 08:34:27;;;;;;;;;20.33;20.33;;;;;;;;118017;1176;23324;-68
2023/07/24 08:36:55;;;;;;;;;25.33;25.33;;;;;;;;118000;1184;23288;-67
2023/07/24 08:39:23;;;;;;;;;22.33;22.33;;;;;;;;117930;1177;23706;-68
2023/07/24 08:41:50;;;;;;;;;22.67;22.67;;;;;;;;118031;1176;23371;-68
2023/07/24 08:44:19;;;;;;;;;21.67;21.67;;;;;;;;117909;1176;23756;-67
2023/07/24 08:46:47;;;;;;;;;21.33;21.33;;;;;;;;117994;1182;23236;-68
2023/07/24 08:49:16;;;;;;;;;20.67;20.67;;;;;;;;117968;1177;23820;-67
2023/07/24 08:51:45;;;;;;;;;20.00;19.33;;;;;;;;117989;1177;23471;-66
2023/07/24 08:54:13;;;;;;;;;20.67;20.67;;;;;;;;118039;1176;24444;-72
2023/07/24 08:56:41;;;;;;;;;18.00;18.00;;;;;;;;118032;1190;23487;-67
2023/07/24 08:59:09;;;;;;;;;18.00;18.00;;;;;;;;117880;1177;23717;-68
2023/07/24 09:01:37;;;;;;;;;17.67;17.67;;;;;;;;118091;1177;23477;-66
2023/07/24 09:04:05;;;;;;;;;16.00;14.67;;;;;;;;117934;1177;23696;-68
2023/07/24 09:06:33;;;;;;;;;18.00;16.00;;;;;;;;117905;1177;23673;-69
2023/07/24 09:09:01;;;;;;;;;19.00;19.00;;;;;;;;117909;1177;24362;-68
2023/07/24 09:11:29;;;;;;;;;19.00;19.00;;;;;;;;117976;1177;24127;-69
2023/07/24 09:13:57;;;;;;;;;20.33;18.33;;;;;;;;117996;1176;23503;-71
2023/07/24 09:16:26;;;;;;;;;17.67;17.00;;;;;;;;117969;1177;23248;-70
2023/07/24 09:18:56;;;;;;;;;18.00;17.33;;;;;;;;117974;1177;23612;-74
2023/07/24 09:21:28;;;;;;;;;15.67;15.67;;;;;;;;117983;1177;23762;-70
2023/07/24 09:23:57;;;;;;;;;18.50;17.50;;;;;;;;118031;1177;23541;-68
2023/07/24 09:26:25;;;;;;;;;13.00;13.00;;;;;;;;118160;1176;23554;-67
2023/07/24 09:28:54;;;;;;;;;15.33;15.00;;;;;;;;118005;1177;23259;-68
2023/07/24 09:31:33;;;;;;;;;18.50;18.50;;;;;;;;117971;1177;23038;-71
2023/07/24 09:34:02;;;;;;;;;15.00;15.00;;;;;;;;117983;1177;23461;-72
2023/07/24 09:36:38;;;;;;;;;15.50;15.50;;;;;;;;117951;1176;23477;-69
2023/07/24 09:39:10;;;;;;;;;18.00;18.00;;;;;;;;118061;1176;23617;-70
2023/07/24 09:41:39;;;;;;;;;18.67;16.33;;;;;;;;118087;1183;23509;-68
2023/07/24 09:44:11;;;;;;;;;16.00;16.00;;;;;;;;118002;1176;23601;-69
2023/07/24 09:46:40;;;;;;;;;18.33;17.33;;;;;;;;118010;1176;23953;-72
2023/07/24 09:49:11;;;;;;;;;18.50;17.50;;;;;;;;118017;1176;23402;-68
2023/07/24 09:51:39;;;;;;;;;16.00;16.00;;;;;;;;117995;1176;23312;-69
2023/07/24 09:54:22;;;;;;;;;17.33;16.67;;;;;;;;118013;1176;23427;-70
2023/07/24 09:56:50;;;;;;;;;16.00;13.00;;;;;;;;117973;1182;23595;-69
2023/07/24 09:59:30;;;;;;;;;14.00;14.00;;;;;;;;117850;1177;23545;-71
2023/07/24 10:01:58;;;;;;;;;17.33;16.33;;;;;;;;117968;1177;23524;-69
2023/07/24 10:04:27;;;;;;;;;16.33;16.00;;;;;;;;117994;1176;23604;-67
2023/07/24 10:06:55;;;;;;;;;16.33;15.33;;;;;;;;118003;1186;23346;-68
2023/07/24 10:09:24;;;;;;;;;19.00;18.00;;;;;;;;117952;1177;23686;-68
2023/07/24 10:11:57;;;;;;;;;13.00;13.00;;;;;;;;117963;1177;23499;-69
2023/07/24 10:14:26;;;;;;;;;16.00;16.00;;;;;;;;118031;1176;23559;-69
2023/07/24 10:16:55;;;;;;;;;15.00;14.00;;;;;;;;117994;1176;23578;-68
2023/07/24 10:19:23;;;;;;;;;17.00;15.33;;;;;;;;118015;1176;23296;-69
2023/07/24 10:21:52;;;;;;;;;15.00;14.67;;;;;;;;118008;1183;23528;-69
2023/07/24 10:24:23;;;;;;;;;17.67;17.67;;;;;;;;118044;1176;23700;-68
2023/07/24 10:27:07;;;;;;;;;17.00;17.00;;;;;;;;118101;1176;23085;-68
2023/07/24 10:29:36;;;;;;;;;19.00;19.00;;;;;;;;118083;1176;24372;-69
2023/07/24 10:32:16;;;;;;;;;16.67;16.67;;;;;;;;117981;1177;23692;-68
2023/07/24 10:34:44;;;;;;;;;14.67;13.33;;;;;;;;117954;1176;23084;-66
2023/07/24 10:37:12;;;;;;;;;14.50;14.50;;;;;;;;118090;1176;23800;-70
2023/07/24 10:39:41;;;;;;;;;14.33;14.33;;;;;;;;117967;1176;23967;-72
2023/07/24 10:42:09;;;;;;;;;16.67;16.00;;;;;;;;117975;1190;23537;-68
2023/07/24 10:44:37;;;;;;;;;17.67;17.67;;;;;;;;117931;1177;23239;-68
2023/07/24 10:47:05;;;;;;;;;15.50;15.50;;;;;;;;118007;1181;23280;-70
2023/07/24 10:49:33;;;;;;;;;18.00;18.00;;;;;;;;118092;1176;24280;-72
2023/07/24 10:52:01;;;;;;;;;16.00;16.00;;;;;;;;118011;1176;23536;-71
2023/07/24 10:54:32;;;;;;;;;15.67;15.33;;;;;;;;118095;1176;23671;-68
2023/07/24 10:57:01;;;;;;;;;15.00;15.00;;;;;;;;118029;1176;24531;-69
2023/07/24 10:59:38;;;;;;;;;17.67;16.33;;;;;;;;117924;1190;23571;-71
2023/07/24 11:02:07;;;;;;;;;15.00;14.67;;;;;;;;117982;1177;23412;-69
2023/07/24 11:04:35;;;;;;;;;16.67;16.67;;;;;;;;118000;1176;23978;-69
2023/07/24 11:07:03;;;;;;;;;13.50;13.50;;;;;;;;117878;1179;24095;-69
2023/07/24 11:09:36;;;;;;;;;19.00;16.33;;;;;;;;118010;1190;23205;-69
2023/07/24 11:12:31;;;;;;;;;13.33;13.33;;;;;;;;118008;1176;24932;-69
2023/07/24 11:15:00;;;;;;;;;14.50;14.50;;;;;;;;117990;1176;23364;-68
2023/07/24 11:17:38;;;;;;;;;18.33;16.67;;;;;;;;117979;1177;24567;-71
2023/07/24 11:20:06;;;;;;;;;17.00;17.00;;;;;;;;118044;1176;24082;-71
2023/07/24 11:22:34;;;;;;;;;15.00;15.00;;;;;;;;117924;1177;23864;-72
2023/07/24 11:25:04;;;;;;;;;14.00;14.00;;;;;;;;117994;1177;23437;-71
2023/07/24 11:27:33;;;;;;;;;14.67;14.67;;;;;;;;118084;1176;23643;-71
2023/07/24 11:30:01;;;;;;;;;18.33;17.33;;;;;;;;118013;1177;23579;-71
2023/07/24 11:32:29;;;;;;;;;16.33;16.33;;;;;;;;117862;1177;23400;-70
2023/07/24 11:34:57;;;;;;;;;18.00;18.00;;;;;;;;117924;1177;23701;-69
2023/07/24 11:37:25;;;;;;;;;19.33;17.33;;;;;;;;117890;1177;23551;-71
2023/07/24 11:39:57;;;;;;;;;17.67;17.67;;;;;;;;117973;1176;23708;-69
2023/07/24 11:42:26;;;;;;;;;17.00;16.00;;;;;;;;118076;1176;23324;-69
2023/07/24 11:44:54;;;;;;;;;17.33;15.33;;;;;;;;118022;1177;23270;-70
2023/07/24 11:47:22;;;;;;;;;17.00;17.00;;;;;;;;118006;1177;24438;-73
2023/07/24 11:49:59;;;;;;;;;18.00;18.00;;;;;;;;118021;1178;23422;-72
2023/07/24 11:52:57;;;;;;;;;18.50;18.50;;;;;;;;117890;1176;23645;-69
2023/07/24 11:55:32;;;;;;;;;22.67;17.00;;;;;;;;117800;1178;23501;-69
2023/07/24 11:58:01;;;;;;;;;16.33;16.33;;;;;;;;118004;1177;23274;-69
2023/07/24 12:00:32;;;;;;;;;19.00;19.00;;;;;;;;117847;1177;24457;-69
2023/07/24 12:03:04;;;;;;;;;19.33;18.33;;;;;;;;117876;1177;23419;-68
2023/07/24 12:05:40;;;;;;;;;23.00;22.67;;;;;;;;118055;1176;23539;-68
2023/07/24 12:08:08;;;;;;;;;18.50;17.50;;;;;;;;118009;1176;23464;-73
2023/07/24 12:10:39;;;;;;;;;16.50;16.00;;;;;;;;117936;1177;23817;-71
2023/07/24 12:13:07;;;;;;;;;21.33;19.33;;;;;;;;117958;1176;23449;-71
2023/07/24 12:15:37;;;;;;;;;19.33;17.33;;;;;;;;118012;1176;23623;-70
2023/07/24 12:18:05;;;;;;;;;18.00;18.00;;;;;;;;117889;1176;23607;-75
2023/07/24 12:20:34;;;;;;;;;20.00;18.67;;;;;;;;117946;1177;23424;-72
2023/07/24 12:23:02;;;;;;;;;19.50;16.50;;;;;;;;118001;1177;25235;-71
2023/07/24 12:25:30;;;;;;;;;17.33;17.33;;;;;;;;117987;1177;23498;-74
2023/07/24 12:27:58;;;;;;;;;18.00;18.00;;;;;;;;117923;1177;23504;-74
2023/07/24 12:30:26;;;;;;;;;21.67;20.67;;;;;;;;117952;1179;24241;-74
2023/07/24 12:32:54;;;;;;;;;18.33;18.33;;;;;;;;117848;1177;23593;-71
2023/07/24 12:35:21;;;;;;;;;20.50;19.50;;;;;;;;118034;1176;23723;-72
2023/07/24 12:37:49;;;;;;;;;21.33;19.00;;;;;;;;117947;1178;23255;-73
2023/07/24 12:40:17;;;;;;;;;17.33;17.33;;;;;;;;117916;1177;23393;-72
2023/07/24 12:42:45;;;;;;;;;20.67;20.33;;;;;;;;118027;1176;23487;-69
2023/07/24 12:45:13;;;;;;;;;18.00;17.00;;;;;;;;117982;1177;23529;-69
2023/07/24 12:47:41;;;;;;;;;20.00;18.33;;;;;;;;117988;1177;23393;-70
2023/07/24 12:50:10;;;;;;;;;23.00;23.00;;;;;;;;118030;1176;23524;-72
2023/07/24 12:52:38;;;;;;;;;20.00;20.00;;;;;;;;118007;1176;23358;-70
2023/07/24 12:55:07;;;;;;;;;19.33;18.33;;;;;;;;117945;1177;23433;-68
2023/07/24 12:57:34;;;;;;;;;19.67;18.67;;;;;;;;118000;1176;24129;-68
2023/07/24 13:00:04;;;;;;;;;19.33;18.67;;;;;;;;117942;1176;23129;-69
2023/07/24 13:02:33;;;;;;;;;28.67;22.67;;;;;;;;117997;1177;23462;-70
2023/07/24 13:05:01;;;;;;;;;23.33;23.00;;;;;;;;117897;1176;23792;-69
2023/07/24 13:07:29;;;;;;;;;21.00;21.00;;;;;;;;117959;1177;23621;-69
2023/07/24 13:09:57;;;;;;;;;22.67;21.00;;;;;;;;118026;1178;23571;-72
2023/07/24 13:12:25;;;;;;;;;22.50;22.50;;;;;;;;117933;1177;23382;-70
2023/07/24 13:14:52;;;;;;;;;22.00;21.67;;;;;;;;118023;1176;23324;-67
2023/07/24 13:17:21;;;;;;;;;24.67;23.00;;;;;;;;117981;1177;23424;-69
2023/07/24 13:19:49;;;;;;;;;18.00;18.00;;;;;;;;117969;1177;23746;-68
2023/07/24 13:22:17;;;;;;;;;24.00;23.67;;;;;;;;118100;1177;23272;-68
2023/07/24 13:24:45;;;;;;;;;22.00;19.00;;;;;;;;117949;1176;23406;-67
2023/07/24 13:27:13;;;;;;;;;21.00;20.00;;;;;;;;117976;1177;23947;-66
2023/07/24 13:29:41;;;;;;;;;20.00;20.00;;;;;;;;118056;1177;23962;-68
2023/07/24 13:32:08;;;;;;;;;23.67;21.67;;;;;;;;117979;1190;23264;-68
2023/07/24 13:34:37;;;;;;;;;21.00;18.00;;;;;;;;117980;1176;23332;-70
2023/07/24 13:37:05;;;;;;;;;18.00;18.00;;;;;;;;117876;1179;23596;-69
2023/07/24 13:39:34;;;;;;;;;22.33;19.00;;;;;;;;117970;1176;23353;-71
2023/07/24 13:42:03;;;;;;;;;20.00;19.00;;;;;;;;118010;1176;24469;-69
2023/07/24 13:44:30;;;;;;;;;23.00;23.00;;;;;;;;117945;1176;23515;-67
2023/07/24 13:46:58;;;;;;;;;20.00;19.00;;;;;;;;117927;1177;23428;-69
2023/07/24 13:49:26;;;;;;;;;21.33;19.33;;;;;;;;117978;1176;23415;-72
2023/07/24 13:51:54;;;;;;;;;19.33;17.33;;;;;;;;118071;1190;23223;-71
2023/07/24 13:54:22;;;;;;;;;25.33;24.00;;;;;;;;118070;1177;23314;-69
2023/07/24 13:56:50;;;;;;;;;18.00;18.00;;;;;;;;117965;1180;23790;-72
2023/07/24 13:59:18;;;;;;;;;23.00;22.33;;;;;;;;117858;1177;23478;-61
2023/07/24 14:07:17;;;;;;;;;22.33;21.67;;;;;;;;116472;1196;24345;-62
2023/07/24 14:09:45;;;;;;;;;19.50;17.00;;;;;;;;117328;1183;23528;-62
2023/07/24 14:12:13;;;;;;;;;21.00;19.00;;;;;;;;117392;1184;23435;-61
2023/07/24 14:14:41;;;;;;;;;23.33;21.00;;;;;;;;117367;1183;23428;-58
2023/07/24 14:17:09;;;;;;;;;18.00;18.00;;;;;;;;117347;1183;25238;-60
2023/07/24 14:19:37;;;;;;;;;24.00;24.00;;;;;;;;117353;1183;24405;-60
2023/07/24 14:22:05;;;;;;;;;25.33;21.67;;;;;;;;117337;1183;24006;-58
2023/07/24 14:24:33;;;;;;;;;19.00;19.00;;;;;;;;117383;1183;23840;-56
2023/07/24 14:27:01;;;;;;;;;20.50;20.50;;;;;;;;117332;1183;23554;-59
2023/07/24 14:29:29;;;;;;;;;19.67;19.33;;;;;;;;117375;1183;23538;-59